sensor_id;sensor_type;location;lat;lon;timestamp;P1;durP1;ratioP1;P2;durP2;ratioP2
22614;SDS011;11474;50.790;0.298;2023-05-10T00:01:52;22.90;;;9.88;;
22614;SDS011;11474;50.790;0.298;2023-05-10T00:04:18;20.73;;;9.45;;
22614;SDS011;11474;50.790;0.298;2023-05-10T00:06:44;24.25;;;9.98;;
22614;SDS011;11474;50.790;0.298;2023-05-10T00:09:10;20.05;;;8.95;;
22614;SDS011;11474;50.790;0.298;2023-05-10T00:11:36;17.27;;;7.60;;
22614;SDS011;11474;50.790;0.298;2023-05-10T00:14:02;17.27;;;7.13;;
22614;SDS011;11474;50.790;0.298;2023-05-10T00:16:28;14.30;;;5.63;;
22614;SDS011;11474;50.790;0.298;2023-05-10T00:18:54;10.75;;;5.18;;
22614;SDS011;11474;50.790;0.298;2023-05-10T00:21:21;9.17;;;4.50;;
22614;SDS011;11474;50.790;0.298;2023-05-10T00:23:47;11.38;;;4.35;;
22614;SDS011;11474;50.790;0.298;2023-05-10T00:26:13;9.23;;;4.30;;
22614;SDS011;11474;50.790;0.298;2023-05-10T00:28:39;10.05;;;3.47;;
22614;SDS011;11474;50.790;0.298;2023-05-10T00:31:05;8.10;;;3.75;;
22614;SDS011;11474;50.790;0.298;2023-05-10T00:33:31;11.40;;;3.63;;
22614;SDS011;11474;50.790;0.298;2023-05-10T00:35:57;7.50;;;2.90;;
22614;SDS011;11474;50.790;0.298;2023-05-10T00:38:23;6.22;;;2.65;;
22614;SDS011;11474;50.790;0.298;2023-05-10T00:40:49;10.18;;;2.90;;
22614;SDS011;11474;50.790;0.298;2023-05-10T00:43:15;7.25;;;2.85;;
22614;SDS011;11474;50.790;0.298;2023-05-10T00:45:41;6.05;;;2.60;;
22614;SDS011;11474;50.790;0.298;2023-05-10T00:48:07;4.50;;;2.20;;
22614;SDS011;11474;50.790;0.298;2023-05-10T00:50:33;4.65;;;2.33;;
22614;SDS011;11474;50.790;0.298;2023-05-10T00:52:59;6.00;;;2.40;;
22614;SDS011;11474;50.790;0.298;2023-05-10T00:55:26;2.67;;;2.10;;
22614;SDS011;11474;50.790;0.298;2023-05-10T00:57:53;5.82;;;2.10;;
22614;SDS011;11474;50.790;0.298;2023-05-10T01:00:19;4.13;;;1.90;;
22614;SDS011;11474;50.790;0.298;2023-05-10T01:02:45;4.20;;;1.80;;
22614;SDS011;11474;50.790;0.298;2023-05-10T01:05:11;4.53;;;2.20;;
22614;SDS011;11474;50.790;0.298;2023-05-10T01:07:38;3.77;;;1.93;;
22614;SDS011;11474;50.790;0.298;2023-05-10T01:10:07;4.22;;;1.98;;
22614;SDS011;11474;50.790;0.298;2023-05-10T01:12:34;3.33;;;1.77;;
22614;SDS011;11474;50.790;0.298;2023-05-10T01:15:01;3.78;;;1.83;;
22614;SDS011;11474;50.790;0.298;2023-05-10T01:17:27;6.75;;;1.95;;
22614;SDS011;11474;50.790;0.298;2023-05-10T01:19:53;6.07;;;2.30;;
22614;SDS011;11474;50.790;0.298;2023-05-10T01:22:42;4.10;;;1.70;;
22614;SDS011;11474;50.790;0.298;2023-05-10T01:28:16;4.13;;;1.90;;
22614;SDS011;11474;50.790;0.298;2023-05-10T01:31:02;6.20;;;2.00;;
22614;SDS011;11474;50.790;0.298;2023-05-10T01:33:38;4.00;;;1.77;;
22614;SDS011;11474;50.790;0.298;2023-05-10T01:36:05;5.38;;;2.08;;
22614;SDS011;11474;50.790;0.298;2023-05-10T01:41:20;2.70;;;1.60;;
22614;SDS011;11474;50.790;0.298;2023-05-10T01:46:35;4.95;;;1.90;;
22614;SDS011;11474;50.790;0.298;2023-05-10T01:49:02;4.68;;;1.67;;
22614;SDS011;11474;50.790;0.298;2023-05-10T01:51:33;3.38;;;1.83;;
22614;SDS011;11474;50.790;0.298;2023-05-10T01:54:02;4.40;;;1.85;;
22614;SDS011;11474;50.790;0.298;2023-05-10T01:56:30;4.07;;;1.88;;
22614;SDS011;11474;50.790;0.298;2023-05-10T01:58:57;3.37;;;1.80;;
22614;SDS011;11474;50.790;0.298;2023-05-10T02:01:24;4.60;;;1.80;;
22614;SDS011;11474;50.790;0.298;2023-05-10T02:03:51;4.53;;;2.00;;
22614;SDS011;11474;50.790;0.298;2023-05-10T02:06:18;3.33;;;1.83;;
22614;SDS011;11474;50.790;0.298;2023-05-10T02:08:45;4.45;;;2.03;;
22614;SDS011;11474;50.790;0.298;2023-05-10T02:11:13;3.05;;;1.80;;
22614;SDS011;11474;50.790;0.298;2023-05-10T02:13:39;4.85;;;1.90;;
22614;SDS011;11474;50.790;0.298;2023-05-10T02:16:05;3.35;;;1.83;;
22614;SDS011;11474;50.790;0.298;2023-05-10T02:18:32;5.53;;;1.80;;
22614;SDS011;11474;50.790;0.298;2023-05-10T02:20:59;5.30;;;1.80;;
22614;SDS011;11474;50.790;0.298;2023-05-10T02:23:26;7.10;;;2.25;;
22614;SDS011;11474;50.790;0.298;2023-05-10T02:25:52;6.13;;;1.92;;
22614;SDS011;11474;50.790;0.298;2023-05-10T02:28:19;4.60;;;2.00;;
22614;SDS011;11474;50.790;0.298;2023-05-10T02:30:46;4.88;;;2.10;;
22614;SDS011;11474;50.790;0.298;2023-05-10T02:33:13;7.03;;;2.40;;
22614;SDS011;11474;50.790;0.298;2023-05-10T02:35:39;6.25;;;2.13;;
22614;SDS011;11474;50.790;0.298;2023-05-10T02:38:06;4.20;;;2.00;;
22614;SDS011;11474;50.790;0.298;2023-05-10T02:40:33;4.68;;;2.00;;
22614;SDS011;11474;50.790;0.298;2023-05-10T02:42:59;5.68;;;2.10;;
22614;SDS011;11474;50.790;0.298;2023-05-10T02:45:27;6.00;;;2.30;;
22614;SDS011;11474;50.790;0.298;2023-05-10T02:47:54;6.38;;;2.30;;
22614;SDS011;11474;50.790;0.298;2023-05-10T02:50:21;8.02;;;2.30;;
22614;SDS011;11474;50.790;0.298;2023-05-10T02:52:49;6.95;;;2.60;;
22614;SDS011;11474;50.790;0.298;2023-05-10T02:55:19;7.97;;;2.67;;
22614;SDS011;11474;50.790;0.298;2023-05-10T02:57:55;9.65;;;3.20;;
22614;SDS011;11474;50.790;0.298;2023-05-10T03:00:22;6.90;;;2.92;;
22614;SDS011;11474;50.790;0.298;2023-05-10T03:02:49;8.25;;;3.17;;
22614;SDS011;11474;50.790;0.298;2023-05-10T03:05:16;7.78;;;2.90;;
22614;SDS011;11474;50.790;0.298;2023-05-10T03:07:42;8.80;;;3.20;;
22614;SDS011;11474;50.790;0.298;2023-05-10T03:10:08;9.30;;;3.58;;
22614;SDS011;11474;50.790;0.298;2023-05-10T03:17:47;8.27;;;3.50;;
22614;SDS011;11474;50.790;0.298;2023-05-10T03:20:16;10.57;;;3.80;;
22614;SDS011;11474;50.790;0.298;2023-05-10T03:22:45;13.82;;;4.20;;
22614;SDS011;11474;50.790;0.298;2023-05-10T03:25:12;9.32;;;3.95;;
22614;SDS011;11474;50.790;0.298;2023-05-10T03:27:41;11.18;;;4.07;;
22614;SDS011;11474;50.790;0.298;2023-05-10T03:30:10;8.70;;;4.57;;
22614;SDS011;11474;50.790;0.298;2023-05-10T03:32:36;14.48;;;4.90;;
22614;SDS011;11474;50.790;0.298;2023-05-10T03:35:06;9.88;;;4.82;;
22614;SDS011;11474;50.790;0.298;2023-05-10T03:37:32;11.68;;;5.05;;
22614;SDS011;11474;50.790;0.298;2023-05-10T03:39:58;11.95;;;5.30;;
22614;SDS011;11474;50.790;0.298;2023-05-10T03:42:24;14.07;;;5.13;;
22614;SDS011;11474;50.790;0.298;2023-05-10T03:44:50;14.05;;;5.50;;
22614;SDS011;11474;50.790;0.298;2023-05-10T03:47:16;15.18;;;5.53;;
22614;SDS011;11474;50.790;0.298;2023-05-10T03:49:42;14.70;;;5.57;;
22614;SDS011;11474;50.790;0.298;2023-05-10T03:52:08;15.30;;;6.40;;
22614;SDS011;11474;50.790;0.298;2023-05-10T03:54:34;14.07;;;5.82;;
22614;SDS011;11474;50.790;0.298;2023-05-10T03:57:00;14.20;;;6.30;;
22614;SDS011;11474;50.790;0.298;2023-05-10T03:59:27;13.98;;;6.30;;
22614;SDS011;11474;50.790;0.298;2023-05-10T04:01:53;15.77;;;6.55;;
22614;SDS011;11474;50.790;0.298;2023-05-10T04:04:19;14.55;;;6.68;;
22614;SDS011;11474;50.790;0.298;2023-05-10T04:06:46;15.73;;;5.93;;
22614;SDS011;11474;50.790;0.298;2023-05-10T04:09:12;19.45;;;6.80;;
22614;SDS011;11474;50.790;0.298;2023-05-10T04:11:38;12.90;;;6.97;;
22614;SDS011;11474;50.790;0.298;2023-05-10T04:14:05;15.10;;;6.63;;
22614;SDS011;11474;50.790;0.298;2023-05-10T04:16:31;15.68;;;7.25;;
22614;SDS011;11474;50.790;0.298;2023-05-10T04:18:57;19.27;;;7.35;;
22614;SDS011;11474;50.790;0.298;2023-05-10T04:21:23;19.13;;;7.43;;
22614;SDS011;11474;50.790;0.298;2023-05-10T04:23:49;15.55;;;7.18;;
22614;SDS011;11474;50.790;0.298;2023-05-10T04:26:15;14.40;;;7.30;;
22614;SDS011;11474;50.790;0.298;2023-05-10T04:28:41;22.15;;;7.65;;
22614;SDS011;11474;50.790;0.298;2023-05-10T04:31:08;16.73;;;7.22;;
22614;SDS011;11474;50.790;0.298;2023-05-10T04:33:34;18.38;;;8.13;;
22614;SDS011;11474;50.790;0.298;2023-05-10T04:36:01;20.03;;;8.00;;
22614;SDS011;11474;50.790;0.298;2023-05-10T04:38:27;18.10;;;8.60;;
22614;SDS011;11474;50.790;0.298;2023-05-10T04:40:53;16.83;;;8.35;;
22614;SDS011;11474;50.790;0.298;2023-05-10T04:43:19;18.40;;;9.07;;
22614;SDS011;11474;50.790;0.298;2023-05-10T04:45:45;19.40;;;8.85;;
22614;SDS011;11474;50.790;0.298;2023-05-10T04:48:12;20.05;;;8.45;;
22614;SDS011;11474;50.790;0.298;2023-05-10T04:50:38;18.00;;;8.65;;
22614;SDS011;11474;50.790;0.298;2023-05-10T04:53:05;18.00;;;8.90;;
22614;SDS011;11474;50.790;0.298;2023-05-10T04:55:31;21.80;;;9.10;;
22614;SDS011;11474;50.790;0.298;2023-05-10T04:57:57;24.45;;;9.80;;
22614;SDS011;11474;50.790;0.298;2023-05-10T05:00:24;24.73;;;10.07;;
22614;SDS011;11474;50.790;0.298;2023-05-10T05:02:50;20.30;;;9.40;;
22614;SDS011;11474;50.790;0.298;2023-05-10T05:05:16;23.45;;;9.60;;
22614;SDS011;11474;50.790;0.298;2023-05-10T05:07:42;22.80;;;9.43;;
22614;SDS011;11474;50.790;0.298;2023-05-10T05:10:08;21.75;;;9.38;;
22614;SDS011;11474;50.790;0.298;2023-05-10T05:12:34;20.15;;;9.15;;
22614;SDS011;11474;50.790;0.298;2023-05-10T05:15:01;24.23;;;9.35;;
22614;SDS011;11474;50.790;0.298;2023-05-10T05:17:27;20.95;;;9.10;;
22614;SDS011;11474;50.790;0.298;2023-05-10T05:19:53;21.23;;;8.77;;
22614;SDS011;11474;50.790;0.298;2023-05-10T05:22:20;22.17;;;9.05;;
22614;SDS011;11474;50.790;0.298;2023-05-10T05:24:52;22.38;;;9.15;;
22614;SDS011;11474;50.790;0.298;2023-05-10T05:27:18;21.93;;;9.27;;
22614;SDS011;11474;50.790;0.298;2023-05-10T05:29:46;24.17;;;9.53;;
22614;SDS011;11474;50.790;0.298;2023-05-10T05:32:12;20.75;;;9.70;;
22614;SDS011;11474;50.790;0.298;2023-05-10T05:34:38;22.10;;;9.30;;
22614;SDS011;11474;50.790;0.298;2023-05-10T05:37:04;23.95;;;9.30;;
22614;SDS011;11474;50.790;0.298;2023-05-10T05:39:30;23.77;;;9.47;;
22614;SDS011;11474;50.790;0.298;2023-05-10T05:41:56;19.15;;;9.27;;
22614;SDS011;11474;50.790;0.298;2023-05-10T05:44:23;21.13;;;8.57;;
22614;SDS011;11474;50.790;0.298;2023-05-10T05:46:49;19.65;;;9.48;;
22614;SDS011;11474;50.790;0.298;2023-05-10T05:49:15;22.65;;;9.30;;
22614;SDS011;11474;50.790;0.298;2023-05-10T05:51:41;26.75;;;9.57;;
22614;SDS011;11474;50.790;0.298;2023-05-10T05:54:08;22.25;;;9.15;;
22614;SDS011;11474;50.790;0.298;2023-05-10T05:56:34;20.90;;;9.00;;
22614;SDS011;11474;50.790;0.298;2023-05-10T05:59:00;18.48;;;8.50;;
22614;SDS011;11474;50.790;0.298;2023-05-10T06:01:26;20.77;;;8.30;;
22614;SDS011;11474;50.790;0.298;2023-05-10T06:03:52;20.13;;;8.95;;
22614;SDS011;11474;50.790;0.298;2023-05-10T06:06:18;21.23;;;9.20;;
22614;SDS011;11474;50.790;0.298;2023-05-10T06:08:44;19.38;;;8.52;;
22614;SDS011;11474;50.790;0.298;2023-05-10T06:11:10;19.20;;;9.30;;
22614;SDS011;11474;50.790;0.298;2023-05-10T06:13:36;20.77;;;8.13;;
22614;SDS011;11474;50.790;0.298;2023-05-10T06:16:02;20.67;;;7.95;;
22614;SDS011;11474;50.790;0.298;2023-05-10T06:18:28;19.50;;;8.10;;
22614;SDS011;11474;50.790;0.298;2023-05-10T06:20:54;21.30;;;7.75;;
22614;SDS011;11474;50.790;0.298;2023-05-10T06:23:21;21.20;;;7.45;;
22614;SDS011;11474;50.790;0.298;2023-05-10T06:25:47;20.80;;;7.88;;
22614;SDS011;11474;50.790;0.298;2023-05-10T06:28:13;20.55;;;7.82;;
22614;SDS011;11474;50.790;0.298;2023-05-10T06:30:39;17.90;;;7.15;;
22614;SDS011;11474;50.790;0.298;2023-05-10T06:33:05;18.58;;;7.35;;
22614;SDS011;11474;50.790;0.298;2023-05-10T06:35:31;20.00;;;6.90;;
22614;SDS011;11474;50.790;0.298;2023-05-10T06:37:58;19.50;;;7.25;;
22614;SDS011;11474;50.790;0.298;2023-05-10T06:40:24;16.77;;;6.35;;
22614;SDS011;11474;50.790;0.298;2023-05-10T06:42:51;19.70;;;6.22;;
22614;SDS011;11474;50.790;0.298;2023-05-10T06:45:17;23.38;;;7.00;;
22614;SDS011;11474;50.790;0.298;2023-05-10T06:47:43;16.10;;;6.50;;
22614;SDS011;11474;50.790;0.298;2023-05-10T06:50:09;21.70;;;6.15;;
22614;SDS011;11474;50.790;0.298;2023-05-10T06:52:36;17.25;;;6.50;;
22614;SDS011;11474;50.790;0.298;2023-05-10T06:55:03;22.00;;;7.25;;
22614;SDS011;11474;50.790;0.298;2023-05-10T06:57:29;18.95;;;6.55;;
22614;SDS011;11474;50.790;0.298;2023-05-10T06:59:55;17.80;;;6.27;;
22614;SDS011;11474;50.790;0.298;2023-05-10T07:02:21;18.65;;;6.50;;
22614;SDS011;11474;50.790;0.298;2023-05-10T07:04:47;18.58;;;6.20;;
22614;SDS011;11474;50.790;0.298;2023-05-10T07:07:14;19.30;;;6.35;;
22614;SDS011;11474;50.790;0.298;2023-05-10T07:09:40;18.15;;;5.78;;
22614;SDS011;11474;50.790;0.298;2023-05-10T07:12:07;15.80;;;5.95;;
22614;SDS011;11474;50.790;0.298;2023-05-10T07:14:33;16.58;;;5.88;;
22614;SDS011;11474;50.790;0.298;2023-05-10T07:16:59;15.48;;;5.53;;
22614;SDS011;11474;50.790;0.298;2023-05-10T07:19:25;17.48;;;4.95;;
22614;SDS011;11474;50.790;0.298;2023-05-10T07:21:51;17.02;;;5.40;;
22614;SDS011;11474;50.790;0.298;2023-05-10T07:24:17;18.00;;;5.43;;
22614;SDS011;11474;50.790;0.298;2023-05-10T07:26:43;17.63;;;5.20;;
22614;SDS011;11474;50.790;0.298;2023-05-10T07:29:10;15.65;;;4.97;;
22614;SDS011;11474;50.790;0.298;2023-05-10T07:31:37;15.13;;;5.00;;
22614;SDS011;11474;50.790;0.298;2023-05-10T07:34:03;14.45;;;4.95;;
22614;SDS011;11474;50.790;0.298;2023-05-10T07:36:29;16.48;;;5.03;;
22614;SDS011;11474;50.790;0.298;2023-05-10T07:38:55;15.43;;;5.03;;
22614;SDS011;11474;50.790;0.298;2023-05-10T07:41:22;14.35;;;4.57;;
22614;SDS011;11474;50.790;0.298;2023-05-10T07:43:48;19.08;;;5.40;;
22614;SDS011;11474;50.790;0.298;2023-05-10T07:46:15;18.87;;;6.10;;
22614;SDS011;11474;50.790;0.298;2023-05-10T07:48:41;16.35;;;5.03;;
22614;SDS011;11474;50.790;0.298;2023-05-10T07:51:07;17.47;;;5.10;;
22614;SDS011;11474;50.790;0.298;2023-05-10T07:53:34;17.35;;;4.65;;
22614;SDS011;11474;50.790;0.298;2023-05-10T07:56:19;15.88;;;4.65;;
22614;SDS011;11474;50.790;0.298;2023-05-10T07:58:45;15.43;;;4.30;;
22614;SDS011;11474;50.790;0.298;2023-05-10T08:01:11;12.10;;;4.00;;
22614;SDS011;11474;50.790;0.298;2023-05-10T08:03:37;14.43;;;3.90;;
22614;SDS011;11474;50.790;0.298;2023-05-10T08:06:03;10.30;;;3.47;;
22614;SDS011;11474;50.790;0.298;2023-05-10T08:08:29;15.35;;;3.88;;
22614;SDS011;11474;50.790;0.298;2023-05-10T08:10:55;11.90;;;3.67;;
22614;SDS011;11474;50.790;0.298;2023-05-10T08:13:21;16.60;;;4.10;;
22614;SDS011;11474;50.790;0.298;2023-05-10T08:15:47;11.05;;;3.30;;
22614;SDS011;11474;50.790;0.298;2023-05-10T08:18:13;14.57;;;3.75;;
22614;SDS011;11474;50.790;0.298;2023-05-10T08:20:39;11.35;;;3.20;;
22614;SDS011;11474;50.790;0.298;2023-05-10T08:23:05;15.57;;;4.07;;
22614;SDS011;11474;50.790;0.298;2023-05-10T08:25:32;13.10;;;4.00;;
22614;SDS011;11474;50.790;0.298;2023-05-10T08:27:58;14.55;;;5.00;;
22614;SDS011;11474;50.790;0.298;2023-05-10T08:30:24;19.73;;;5.15;;
22614;SDS011;11474;50.790;0.298;2023-05-10T08:32:50;19.05;;;5.50;;
22614;SDS011;11474;50.790;0.298;2023-05-10T08:35:16;17.30;;;5.70;;
22614;SDS011;11474;50.790;0.298;2023-05-10T08:37:42;20.48;;;6.30;;
22614;SDS011;11474;50.790;0.298;2023-05-10T08:40:09;25.08;;;6.80;;
22614;SDS011;11474;50.790;0.298;2023-05-10T08:42:38;21.10;;;6.72;;
22614;SDS011;11474;50.790;0.298;2023-05-10T08:45:06;20.48;;;6.65;;
22614;SDS011;11474;50.790;0.298;2023-05-10T08:47:34;18.15;;;6.55;;
22614;SDS011;11474;50.790;0.298;2023-05-10T08:50:00;24.08;;;7.05;;
22614;SDS011;11474;50.790;0.298;2023-05-10T08:52:28;15.30;;;6.53;;
22614;SDS011;11474;50.790;0.298;2023-05-10T08:54:56;20.23;;;6.85;;
22614;SDS011;11474;50.790;0.298;2023-05-10T08:57:22;24.27;;;6.88;;
22614;SDS011;11474;50.790;0.298;2023-05-10T08:59:48;23.15;;;6.75;;
22614;SDS011;11474;50.790;0.298;2023-05-10T09:02:14;21.17;;;7.15;;
22614;SDS011;11474;50.790;0.298;2023-05-10T09:04:40;18.70;;;6.47;;
22614;SDS011;11474;50.790;0.298;2023-05-10T09:07:07;22.13;;;6.82;;
22614;SDS011;11474;50.790;0.298;2023-05-10T09:09:33;20.52;;;6.47;;
22614;SDS011;11474;50.790;0.298;2023-05-10T09:11:59;19.55;;;6.90;;
22614;SDS011;11474;50.790;0.298;2023-05-10T09:14:25;20.13;;;6.70;;
22614;SDS011;11474;50.790;0.298;2023-05-10T09:16:52;15.57;;;5.38;;
22614;SDS011;11474;50.790;0.298;2023-05-10T09:19:19;21.93;;;6.00;;
22614;SDS011;11474;50.790;0.298;2023-05-10T09:21:45;16.52;;;5.13;;
22614;SDS011;11474;50.790;0.298;2023-05-10T09:24:11;12.95;;;4.93;;
22614;SDS011;11474;50.790;0.298;2023-05-10T09:26:47;17.73;;;5.30;;
22614;SDS011;11474;50.790;0.298;2023-05-10T09:29:13;17.20;;;4.85;;
22614;SDS011;11474;50.790;0.298;2023-05-10T09:31:43;19.67;;;5.00;;
22614;SDS011;11474;50.790;0.298;2023-05-10T09:34:11;18.23;;;5.25;;
22614;SDS011;11474;50.790;0.298;2023-05-10T09:36:55;20.52;;;5.35;;
22614;SDS011;11474;50.790;0.298;2023-05-10T09:39:35;19.38;;;5.22;;
22614;SDS011;11474;50.790;0.298;2023-05-10T09:42:03;19.70;;;5.60;;
22614;SDS011;11474;50.790;0.298;2023-05-10T09:44:29;20.45;;;5.68;;
22614;SDS011;11474;50.790;0.298;2023-05-10T09:46:56;16.88;;;5.07;;
22614;SDS011;11474;50.790;0.298;2023-05-10T09:49:22;21.30;;;6.22;;
22614;SDS011;11474;50.790;0.298;2023-05-10T09:51:59;24.20;;;6.22;;
22614;SDS011;11474;50.790;0.298;2023-05-10T09:54:25;19.08;;;5.22;;
22614;SDS011;11474;50.790;0.298;2023-05-10T09:56:51;19.02;;;5.78;;
22614;SDS011;11474;50.790;0.298;2023-05-10T09:59:19;23.13;;;5.65;;
22614;SDS011;11474;50.790;0.298;2023-05-10T10:01:51;20.60;;;6.38;;
22614;SDS011;11474;50.790;0.298;2023-05-10T10:04:17;18.80;;;5.28;;
22614;SDS011;11474;50.790;0.298;2023-05-10T10:06:43;21.75;;;5.53;;
22614;SDS011;11474;50.790;0.298;2023-05-10T10:09:09;17.83;;;5.35;;
22614;SDS011;11474;50.790;0.298;2023-05-10T10:11:36;17.67;;;5.90;;
22614;SDS011;11474;50.790;0.298;2023-05-10T10:14:02;20.10;;;4.97;;
22614;SDS011;11474;50.790;0.298;2023-05-10T10:16:29;17.63;;;5.18;;
22614;SDS011;11474;50.790;0.298;2023-05-10T10:18:55;19.23;;;6.18;;
22614;SDS011;11474;50.790;0.298;2023-05-10T10:21:22;21.55;;;5.40;;
22614;SDS011;11474;50.790;0.298;2023-05-10T10:23:48;17.20;;;4.93;;
22614;SDS011;11474;50.790;0.298;2023-05-10T10:26:17;17.73;;;5.50;;
22614;SDS011;11474;50.790;0.298;2023-05-10T10:29:00;19.83;;;5.30;;
22614;SDS011;11474;50.790;0.298;2023-05-10T10:32:10;20.80;;;4.97;;
22614;SDS011;11474;50.790;0.298;2023-05-10T10:34:28;21.08;;;5.93;;
22614;SDS011;11474;50.790;0.298;2023-05-10T10:36:55;20.30;;;5.00;;
22614;SDS011;11474;50.790;0.298;2023-05-10T10:39:21;16.00;;;5.30;;
22614;SDS011;11474;50.790;0.298;2023-05-10T10:41:50;15.85;;;5.20;;
22614;SDS011;11474;50.790;0.298;2023-05-10T10:47:08;19.58;;;5.10;;
22614;SDS011;11474;50.790;0.298;2023-05-10T10:52:22;16.33;;;4.93;;
22614;SDS011;11474;50.790;0.298;2023-05-10T10:55:02;18.07;;;4.77;;
22614;SDS011;11474;50.790;0.298;2023-05-10T10:57:31;17.00;;;4.88;;
22614;SDS011;11474;50.790;0.298;2023-05-10T11:02:45;14.90;;;4.33;;
22614;SDS011;11474;50.790;0.298;2023-05-10T11:07:55;17.70;;;4.78;;
22614;SDS011;11474;50.790;0.298;2023-05-10T11:10:22;19.08;;;4.93;;
22614;SDS011;11474;50.790;0.298;2023-05-10T11:15:30;19.65;;;5.32;;
22614;SDS011;11474;50.790;0.298;2023-05-10T11:17:56;20.20;;;5.10;;
22614;SDS011;11474;50.790;0.298;2023-05-10T11:20:23;20.60;;;5.47;;
22614;SDS011;11474;50.790;0.298;2023-05-10T11:22:54;19.98;;;5.35;;
22614;SDS011;11474;50.790;0.298;2023-05-10T11:25:23;20.40;;;5.30;;
22614;SDS011;11474;50.790;0.298;2023-05-10T11:27:52;17.30;;;5.17;;
22614;SDS011;11474;50.790;0.298;2023-05-10T11:30:18;19.67;;;5.07;;
22614;SDS011;11474;50.790;0.298;2023-05-10T11:32:44;20.23;;;5.10;;
22614;SDS011;11474;50.790;0.298;2023-05-10T11:35:10;21.33;;;5.50;;
22614;SDS011;11474;50.790;0.298;2023-05-10T11:37:38;23.00;;;5.45;;
22614;SDS011;11474;50.790;0.298;2023-05-10T11:40:09;21.45;;;5.97;;
22614;SDS011;11474;50.790;0.298;2023-05-10T11:42:36;24.05;;;5.25;;
22614;SDS011;11474;50.790;0.298;2023-05-10T11:45:03;22.13;;;5.15;;
22614;SDS011;11474;50.790;0.298;2023-05-10T11:47:29;25.73;;;5.60;;
22614;SDS011;11474;50.790;0.298;2023-05-10T11:49:55;25.52;;;5.72;;
22614;SDS011;11474;50.790;0.298;2023-05-10T11:52:22;30.73;;;5.60;;
22614;SDS011;11474;50.790;0.298;2023-05-10T11:54:52;23.87;;;6.10;;
22614;SDS011;11474;50.790;0.298;2023-05-10T11:57:18;25.70;;;4.93;;
22614;SDS011;11474;50.790;0.298;2023-05-10T11:59:45;22.05;;;5.30;;
22614;SDS011;11474;50.790;0.298;2023-05-10T12:02:13;25.67;;;5.57;;
22614;SDS011;11474;50.790;0.298;2023-05-10T12:04:39;21.67;;;4.50;;
22614;SDS011;11474;50.790;0.298;2023-05-10T12:07:05;17.40;;;4.60;;
22614;SDS011;11474;50.790;0.298;2023-05-10T12:09:31;16.63;;;4.55;;
22614;SDS011;11474;50.790;0.298;2023-05-10T12:11:57;23.75;;;4.65;;
22614;SDS011;11474;50.790;0.298;2023-05-10T12:14:23;18.15;;;4.85;;
22614;SDS011;11474;50.790;0.298;2023-05-10T12:16:50;15.02;;;3.90;;
22614;SDS011;11474;50.790;0.298;2023-05-10T12:19:19;17.93;;;5.63;;
22614;SDS011;11474;50.790;0.298;2023-05-10T12:21:46;23.60;;;5.07;;
22614;SDS011;11474;50.790;0.298;2023-05-10T12:24:12;20.92;;;4.18;;
22614;SDS011;11474;50.790;0.298;2023-05-10T12:26:41;15.65;;;4.15;;
22614;SDS011;11474;50.790;0.298;2023-05-10T12:29:11;19.73;;;4.03;;
22614;SDS011;11474;50.790;0.298;2023-05-10T12:31:59;19.60;;;4.28;;
22614;SDS011;11474;50.790;0.298;2023-05-10T12:34:26;19.08;;;4.40;;
22614;SDS011;11474;50.790;0.298;2023-05-10T12:36:53;20.73;;;4.30;;
22614;SDS011;11474;50.790;0.298;2023-05-10T12:39:19;20.05;;;4.65;;
22614;SDS011;11474;50.790;0.298;2023-05-10T12:41:45;19.67;;;4.30;;
22614;SDS011;11474;50.790;0.298;2023-05-10T12:44:11;19.45;;;4.30;;
22614;SDS011;11474;50.790;0.298;2023-05-10T12:46:37;17.75;;;4.07;;
22614;SDS011;11474;50.790;0.298;2023-05-10T12:49:03;16.77;;;3.70;;
22614;SDS011;11474;50.790;0.298;2023-05-10T12:51:30;21.38;;;4.22;;
22614;SDS011;11474;50.790;0.298;2023-05-10T12:53:56;23.73;;;4.95;;
22614;SDS011;11474;50.790;0.298;2023-05-10T12:56:22;25.23;;;4.13;;
22614;SDS011;11474;50.790;0.298;2023-05-10T12:58:48;22.48;;;4.32;;
22614;SDS011;11474;50.790;0.298;2023-05-10T13:01:14;19.58;;;3.80;;
22614;SDS011;11474;50.790;0.298;2023-05-10T13:03:40;19.75;;;3.55;;
22614;SDS011;11474;50.790;0.298;2023-05-10T13:06:08;21.20;;;4.32;;
22614;SDS011;11474;50.790;0.298;2023-05-10T13:08:34;21.57;;;4.30;;
22614;SDS011;11474;50.790;0.298;2023-05-10T13:11:00;22.02;;;4.53;;
22614;SDS011;11474;50.790;0.298;2023-05-10T13:13:27;17.50;;;3.95;;
22614;SDS011;11474;50.790;0.298;2023-05-10T13:15:53;20.20;;;3.58;;
22614;SDS011;11474;50.790;0.298;2023-05-10T13:18:19;19.55;;;4.07;;
22614;SDS011;11474;50.790;0.298;2023-05-10T13:20:45;19.48;;;3.40;;
22614;SDS011;11474;50.790;0.298;2023-05-10T13:23:11;22.57;;;3.47;;
22614;SDS011;11474;50.790;0.298;2023-05-10T13:25:37;19.80;;;4.05;;
22614;SDS011;11474;50.790;0.298;2023-05-10T13:28:04;18.17;;;3.85;;
22614;SDS011;11474;50.790;0.298;2023-05-10T13:30:30;17.65;;;3.53;;
22614;SDS011;11474;50.790;0.298;2023-05-10T13:32:56;17.27;;;3.75;;
22614;SDS011;11474;50.790;0.298;2023-05-10T13:35:22;17.27;;;3.30;;
22614;SDS011;11474;50.790;0.298;2023-05-10T13:37:48;15.82;;;3.83;;
22614;SDS011;11474;50.790;0.298;2023-05-10T13:40:15;17.55;;;3.40;;
22614;SDS011;11474;50.790;0.298;2023-05-10T13:42:41;17.13;;;3.30;;
22614;SDS011;11474;50.790;0.298;2023-05-10T13:45:08;14.93;;;2.90;;
22614;SDS011;11474;50.790;0.298;2023-05-10T13:47:34;19.20;;;3.10;;
22614;SDS011;11474;50.790;0.298;2023-05-10T13:50:01;20.45;;;3.58;;
22614;SDS011;11474;50.790;0.298;2023-05-10T13:52:28;15.70;;;3.23;;
22614;SDS011;11474;50.790;0.298;2023-05-10T13:54:54;14.23;;;2.97;;
22614;SDS011;11474;50.790;0.298;2023-05-10T13:57:21;17.67;;;3.00;;
22614;SDS011;11474;50.790;0.298;2023-05-10T13:59:48;15.02;;;3.10;;
22614;SDS011;11474;50.790;0.298;2023-05-10T14:02:14;13.27;;;3.30;;
22614;SDS011;11474;50.790;0.298;2023-05-10T14:04:40;12.25;;;2.70;;
22614;SDS011;11474;50.790;0.298;2023-05-10T14:07:06;14.30;;;2.90;;
22614;SDS011;11474;50.790;0.298;2023-05-10T14:09:32;13.93;;;3.17;;
22614;SDS011;11474;50.790;0.298;2023-05-10T14:11:58;12.80;;;3.28;;
22614;SDS011;11474;50.790;0.298;2023-05-10T14:14:24;13.68;;;2.47;;
22614;SDS011;11474;50.790;0.298;2023-05-10T14:16:51;12.60;;;2.90;;
22614;SDS011;11474;50.790;0.298;2023-05-10T14:19:17;11.55;;;2.90;;
22614;SDS011;11474;50.790;0.298;2023-05-10T14:21:43;16.40;;;3.08;;
22614;SDS011;11474;50.790;0.298;2023-05-10T14:24:09;17.70;;;3.10;;
22614;SDS011;11474;50.790;0.298;2023-05-10T14:26:35;16.88;;;3.00;;
22614;SDS011;11474;50.790;0.298;2023-05-10T14:29:01;16.48;;;3.10;;
22614;SDS011;11474;50.790;0.298;2023-05-10T14:31:27;16.47;;;3.27;;
22614;SDS011;11474;50.790;0.298;2023-05-10T14:33:55;16.52;;;3.88;;
22614;SDS011;11474;50.790;0.298;2023-05-10T14:36:22;17.02;;;3.67;;
22614;SDS011;11474;50.790;0.298;2023-05-10T14:38:49;14.03;;;3.00;;
22614;SDS011;11474;50.790;0.298;2023-05-10T14:41:15;15.30;;;3.35;;
22614;SDS011;11474;50.790;0.298;2023-05-10T14:43:42;19.85;;;3.70;;
22614;SDS011;11474;50.790;0.298;2023-05-10T14:46:08;17.77;;;3.30;;
22614;SDS011;11474;50.790;0.298;2023-05-10T14:48:35;16.15;;;3.20;;
22614;SDS011;11474;50.790;0.298;2023-05-10T14:51:01;17.90;;;3.15;;
22614;SDS011;11474;50.790;0.298;2023-05-10T14:53:28;18.15;;;3.17;;
22614;SDS011;11474;50.790;0.298;2023-05-10T14:55:54;13.80;;;3.47;;
22614;SDS011;11474;50.790;0.298;2023-05-10T14:58:20;17.85;;;3.25;;
22614;SDS011;11474;50.790;0.298;2023-05-10T15:00:46;18.00;;;3.08;;
22614;SDS011;11474;50.790;0.298;2023-05-10T15:03:12;15.93;;;3.22;;